createdAt,value
2023-10-10T00:01:39.857Z,83.21
2023-10-10T00:03:43.776Z,83.20
2023-10-10T00:05:46.221Z,83.57
2023-10-10T00:07:48.124Z,83.09
2023-10-10T00:09:52.056Z,83.53
2023-10-10T00:11:54.851Z,83.46
2023-10-10T00:14:06.737Z,83.51
2023-10-10T00:16:09.870Z,83.92
2023-10-10T00:18:12.788Z,83.75
2023-10-10T00:20:18.361Z,83.69
2023-10-10T00:22:28.149Z,83.53
2023-10-10T00:24:33.078Z,83.69
2023-10-10T00:26:35.952Z,83.63
2023-10-10T00:28:37.745Z,83.74
2023-10-10T00:30:44.851Z,83.62
2023-10-10T00:32:47.659Z,83.80
2023-10-10T00:34:50.359Z,83.85
2023-10-10T00:36:52.338Z,83.86
2023-10-10T00:39:07.477Z,83.89
2023-10-10T00:41:12.300Z,84.00
2023-10-10T00:43:17.198Z,83.95
2023-10-10T00:45:19.002Z,83.82
2023-10-10T00:47:25.852Z,84.07
2023-10-10T00:49:32.656Z,83.82
2023-10-10T00:51:35.293Z,83.70
2023-10-10T00:53:40.645Z,83.77
2023-10-10T00:55:42.827Z,83.83
2023-10-10T00:57:44.696Z,84.10
2023-10-10T00:59:47.696Z,83.70
2023-10-10T01:01:50.632Z,83.74
2023-10-10T01:03:52.651Z,83.87
2023-10-10T01:05:54.888Z,83.87
2023-10-10T01:08:00.640Z,83.91
2023-10-10T01:10:12.825Z,84.13
2023-10-10T01:12:14.846Z,83.85
2023-10-10T01:14:28.276Z,83.84
2023-10-10T01:16:30.383Z,83.99
2023-10-10T01:18:43.313Z,83.87
2023-10-10T01:20:48.053Z,83.49
2023-10-10T01:22:50.167Z,83.54
2023-10-10T01:24:53.826Z,83.76
2023-10-10T01:27:04.186Z,83.58
2023-10-10T01:29:25.039Z,83.62
2023-10-10T01:31:29.912Z,83.39
2023-10-10T01:33:35.922Z,83.38
2023-10-10T01:35:41.725Z,83.23
2023-10-10T01:37:45.218Z,83.27
2023-10-10T01:40:13.225Z,83.21
2023-10-10T01:42:17.897Z,83.49
2023-10-10T01:44:20.368Z,83.53
2023-10-10T01:46:29.569Z,83.27
2023-10-10T01:48:31.535Z,83.19
2023-10-10T01:50:33.401Z,83.18
2023-10-10T01:52:47.669Z,83.49
2023-10-10T01:54:54.388Z,83.48
2023-10-10T01:56:56.685Z,83.08
2023-10-10T01:58:58.400Z,83.18
2023-10-10T02:01:00.194Z,83.47
2023-10-10T02:03:08.581Z,83.53
2023-10-10T02:05:13.177Z,84.05
2023-10-10T02:07:24.137Z,83.63
2023-10-10T02:09:25.849Z,83.96
2023-10-10T02:11:28.473Z,84.20
2023-10-10T02:13:34.710Z,83.88
2023-10-10T02:15:37.970Z,83.81
2023-10-10T02:17:41.468Z,83.93
2023-10-10T02:19:43.681Z,84.13
2023-10-10T02:21:49.136Z,83.66
2023-10-10T02:23:55.144Z,84.31
2023-10-10T02:25:57.132Z,83.99
2023-10-10T02:28:04.535Z,83.76
2023-10-10T02:30:07.667Z,83.73
2023-10-10T02:32:14.308Z,83.75
2023-10-10T02:34:16.110Z,83.87
2023-10-10T02:36:18.118Z,83.82
2023-10-10T02:38:23.996Z,83.96
2023-10-10T02:40:32.452Z,83.91
2023-10-10T02:42:36.818Z,83.81
2023-10-10T02:44:38.621Z,83.78
2023-10-10T02:46:42.228Z,83.36
2023-10-10T02:48:44.078Z,83.34
2023-10-10T02:50:45.808Z,83.90
2023-10-10T02:52:47.567Z,83.68
2023-10-10T02:54:55.724Z,83.70
2023-10-10T02:57:25.922Z,83.95
2023-10-10T02:59:39.670Z,84.10
2023-10-10T03:01:58.033Z,83.57
2023-10-10T03:03:59.920Z,83.65
2023-10-10T03:06:07.764Z,83.75
2023-10-10T03:08:27.927Z,83.76
2023-10-10T03:10:43.099Z,83.62
2023-10-10T03:12:50.478Z,83.72
2023-10-10T03:14:55.194Z,83.80
2023-10-10T03:17:22.079Z,83.55
2023-10-10T03:19:34.300Z,83.89
2023-10-10T03:21:50.940Z,83.99
2023-10-10T03:24:08.571Z,84.29
2023-10-10T03:26:20.402Z,83.95
2023-10-10T03:28:29.567Z,84.25
2023-10-10T03:30:52.011Z,84.11
2023-10-10T03:33:17.921Z,84.30
2023-10-10T03:35:35.524Z,84.15
2023-10-10T03:37:55.079Z,84.16
2023-10-10T03:39:59.706Z,83.99
2023-10-10T03:42:39.609Z,84.42
2023-10-10T03:45:01.598Z,84.22
2023-10-10T03:47:03.344Z,84.30
2023-10-10T03:49:23.999Z,84.45
2023-10-10T03:51:44.381Z,84.65
2023-10-10T03:54:04.490Z,84.49
2023-10-10T03:56:24.876Z,84.26
2023-10-10T03:58:45.200Z,84.18
2023-10-10T04:01:05.587Z,84.48
2023-10-10T04:03:25.864Z,84.55
2023-10-10T04:05:46.390Z,84.24
2023-10-10T04:08:06.880Z,84.38
2023-10-10T04:10:27.197Z,84.03
2023-10-10T04:12:47.692Z,84.47
2023-10-10T04:15:08.142Z,84.43
2023-10-10T04:17:28.556Z,84.20
2023-10-10T04:19:49.522Z,84.66
2023-10-10T04:22:09.895Z,84.49
2023-10-10T04:24:29.866Z,84.27
2023-10-10T04:26:50.135Z,84.67
2023-10-10T04:29:10.679Z,84.37
2023-10-10T04:31:31.071Z,84.55
2023-10-10T04:33:51.571Z,84.52
2023-10-10T04:36:11.872Z,84.29
2023-10-10T04:38:32.370Z,84.48
2023-10-10T04:41:12.637Z,84.72
2023-10-10T04:43:32.795Z,84.49
2023-10-10T04:45:53.046Z,84.61
2023-10-10T04:48:13.162Z,84.53
2023-10-10T04:50:33.802Z,84.61
2023-10-10T04:52:54.607Z,84.49
2023-10-10T04:55:14.866Z,84.82
2023-10-10T04:57:34.880Z,84.78
2023-10-10T04:59:55.252Z,84.44
2023-10-10T05:02:15.348Z,84.74
2023-10-10T05:04:37.106Z,84.76
2023-10-10T05:06:57.591Z,84.90
2023-10-10T05:09:17.957Z,85.00
2023-10-10T05:11:38.179Z,84.84
2023-10-10T05:13:58.634Z,84.67
2023-10-10T05:16:24.855Z,84.65
2023-10-10T05:18:45.015Z,84.99
2023-10-10T05:21:05.527Z,84.61
2023-10-10T05:23:26.116Z,84.64
2023-10-10T05:25:34.222Z,84.80
2023-10-10T05:27:42.508Z,84.85
2023-10-10T05:29:44.655Z,84.81
2023-10-10T05:31:52.612Z,84.83
2023-10-10T05:33:54.596Z,84.96
2023-10-10T05:36:00.621Z,84.60
2023-10-10T05:38:02.754Z,84.78
2023-10-10T05:40:08.318Z,85.10
2023-10-10T05:42:10.173Z,84.71
2023-10-10T05:44:15.165Z,84.47
2023-10-10T05:46:17.390Z,84.71
2023-10-10T05:48:19.188Z,84.87
2023-10-10T05:50:23.506Z,84.96
2023-10-10T05:52:25.572Z,84.77
2023-10-10T05:54:27.298Z,84.47
2023-10-10T05:56:31.395Z,84.91
2023-10-10T05:58:33.174Z,84.57
2023-10-10T06:00:38.114Z,85.02
2023-10-10T06:02:40.289Z,84.55
2023-10-10T06:04:45.382Z,84.63
2023-10-10T06:06:47.585Z,84.69
2023-10-10T06:08:58.371Z,84.59
2023-10-10T06:11:01.343Z,84.74
2023-10-10T06:13:05.307Z,84.71
2023-10-10T06:15:08.178Z,84.97
2023-10-10T06:17:10.439Z,84.92
2023-10-10T06:19:22.492Z,84.80
2023-10-10T06:21:24.576Z,84.66
2023-10-10T06:23:27.373Z,85.02
2023-10-10T06:25:30.526Z,84.72
2023-10-10T06:27:37.935Z,84.90
2023-10-10T06:29:42.126Z,85.11
2023-10-10T06:31:45.056Z,84.85
2023-10-10T06:33:53.815Z,84.91
2023-10-10T06:36:24.009Z,84.81
2023-10-10T06:38:26.299Z,85.14
2023-10-10T06:40:29.880Z,84.72
2023-10-10T06:42:31.849Z,84.87
2023-10-10T06:44:37.698Z,85.17
2023-10-10T06:46:41.676Z,85.29
2023-10-10T06:48:43.406Z,84.85
2023-10-10T06:50:46.069Z,85.04
2023-10-10T06:52:48.519Z,84.84
2023-10-10T06:54:56.834Z,84.83
2023-10-10T06:57:01.555Z,84.96
2023-10-10T06:59:03.497Z,84.98
2023-10-10T07:01:06.251Z,85.02
2023-10-10T07:03:08.274Z,85.16
2023-10-10T07:05:17.060Z,85.39
2023-10-10T07:07:22.893Z,85.35
2023-10-10T07:09:31.242Z,85.48
2023-10-10T07:11:33.132Z,84.95
2023-10-10T07:13:37.460Z,85.17
2023-10-10T07:15:41.655Z,85.13
2023-10-10T07:17:43.695Z,85.08
2023-10-10T07:20:02.236Z,84.78
2023-10-10T07:22:05.142Z,84.93
2023-10-10T07:24:15.114Z,84.74
2023-10-10T07:26:24.652Z,84.69
2023-10-10T07:28:27.766Z,84.39
2023-10-10T07:30:35.858Z,84.98
2023-10-10T07:32:40.592Z,84.76
2023-10-10T07:34:43.531Z,84.75
2023-10-10T07:36:45.410Z,84.64
2023-10-10T07:38:47.233Z,84.84
2023-10-10T07:40:50.017Z,84.76
2023-10-10T07:42:52.212Z,84.61
2023-10-10T07:45:00.270Z,84.75
2023-10-10T07:47:11.077Z,84.51
2023-10-10T07:49:18.228Z,84.54
2023-10-10T07:51:29.040Z,84.41
2023-10-10T07:53:35.765Z,84.67
2023-10-10T07:56:01.168Z,84.32
2023-10-10T07:58:07.597Z,84.54
2023-10-10T08:00:18.488Z,84.09
2023-10-10T08:02:26.650Z,83.96
2023-10-10T08:04:28.935Z,84.09
2023-10-10T08:06:33.024Z,84.00
2023-10-10T08:08:37.542Z,84.16
2023-10-10T08:10:39.998Z,84.08
2023-10-10T08:12:43.474Z,83.84
2023-10-10T08:14:45.384Z,83.95
2023-10-10T08:16:47.371Z,83.97
2023-10-10T08:18:49.361Z,83.91
2023-10-10T08:20:51.098Z,83.64
2023-10-10T08:22:53.701Z,83.55
2023-10-10T08:24:56.006Z,84.06
2023-10-10T08:26:57.726Z,84.03
2023-10-10T08:28:59.433Z,83.96
2023-10-10T08:31:01.421Z,83.43
2023-10-10T08:33:04.908Z,83.58
2023-10-10T08:35:09.465Z,83.56
2023-10-10T08:37:11.492Z,83.49
2023-10-10T08:39:26.628Z,83.71
2023-10-10T08:41:31.460Z,83.11
2023-10-10T08:43:37.086Z,82.80
2023-10-10T08:45:41.829Z,82.90
2023-10-10T08:47:44.556Z,83.10
2023-10-10T08:49:49.141Z,82.78
2023-10-10T08:51:54.548Z,82.46
2023-10-10T08:53:56.845Z,81.74
2023-10-10T08:55:58.795Z,81.67
2023-10-10T08:58:00.688Z,81.31
2023-10-10T09:00:02.589Z,81.31
2023-10-10T09:02:17.815Z,81.12
2023-10-10T09:04:21.375Z,80.73
2023-10-10T09:06:23.518Z,80.40
2023-10-10T09:08:34.650Z,80.58
2023-10-10T09:10:40.957Z,80.09
2023-10-10T09:12:54.839Z,79.90
2023-10-10T09:14:56.808Z,80.34
2023-10-10T09:16:58.549Z,79.61
2023-10-10T09:19:09.848Z,79.56
2023-10-10T09:21:20.227Z,79.90
2023-10-10T09:23:28.569Z,79.36
2023-10-10T09:25:42.621Z,78.97
2023-10-10T09:27:58.609Z,78.62
2023-10-10T09:30:03.049Z,78.27
2023-10-10T09:32:07.012Z,77.37
2023-10-10T09:34:09.897Z,77.49
2023-10-10T09:36:17.380Z,77.50
2023-10-10T09:38:22.503Z,77.22
2023-10-10T09:40:25.902Z,77.10
2023-10-10T09:42:44.536Z,77.15
2023-10-10T09:44:55.426Z,77.63
2023-10-10T09:47:07.140Z,77.27
2023-10-10T09:49:09.440Z,77.46
2023-10-10T09:51:31.775Z,76.72
2023-10-10T09:53:34.509Z,75.94
2023-10-10T09:55:40.732Z,75.40
2023-10-10T09:58:02.428Z,75.46
2023-10-10T10:00:23.918Z,74.66
2023-10-10T10:02:42.023Z,74.75
2023-10-10T10:04:46.229Z,74.98
2023-10-10T10:07:07.167Z,75.71
2023-10-10T10:09:19.251Z,75.30
2023-10-10T10:11:35.192Z,75.80
2023-10-10T10:13:57.746Z,76.17
2023-10-10T10:18:47.019Z,76.07
2023-10-10T10:20:50.791Z,76.37
2023-10-10T10:22:55.421Z,76.82
2023-10-10T10:25:30.175Z,77.14
2023-10-10T10:27:41.030Z,77.96
2023-10-10T10:29:55.293Z,77.99
2023-10-10T10:32:01.706Z,78.18
2023-10-10T10:34:32.101Z,78.50
2023-10-10T10:37:08.174Z,79.16
2023-10-10T10:39:23.085Z,79.53
2023-10-10T10:41:43.249Z,79.40
2023-10-10T10:43:52.461Z,79.70
2023-10-10T10:46:13.480Z,79.51
2023-10-10T10:48:35.569Z,79.83
2023-10-10T10:50:42.405Z,79.79
2023-10-10T10:52:57.280Z,80.18
2023-10-10T10:55:20.500Z,79.27
2023-10-10T10:59:46.442Z,79.41
2023-10-10T11:01:53.943Z,79.76
2023-10-10T11:03:57.022Z,79.69
2023-10-10T11:05:59.403Z,78.89
2023-10-10T11:08:13.130Z,79.41
2023-10-10T11:10:35.026Z,79.67
2023-10-10T11:12:38.662Z,79.59
2023-10-10T11:14:47.420Z,80.15
2023-10-10T11:16:57.823Z,79.98
2023-10-10T11:19:03.857Z,80.05
2023-10-10T11:21:12.772Z,79.91
2023-10-10T11:23:15.990Z,80.47
2023-10-10T11:25:28.325Z,80.81
2023-10-10T11:27:31.293Z,80.93
2023-10-10T11:30:02.309Z,80.77
2023-10-10T11:32:12.817Z,80.89
2023-10-10T11:34:27.485Z,81.21
2023-10-10T11:36:39.577Z,80.82
2023-10-10T11:38:41.659Z,80.80
2023-10-10T11:40:45.094Z,80.84
2023-10-10T11:42:51.185Z,81.14
2023-10-10T11:44:55.593Z,81.10
2023-10-10T11:47:06.250Z,81.24
2023-10-10T11:49:16.486Z,80.96
2023-10-10T11:51:33.831Z,80.92
2023-10-10T11:53:38.254Z,80.73
2023-10-10T11:55:41.979Z,80.59
2023-10-10T11:57:43.960Z,80.46
2023-10-10T11:59:48.651Z,80.80
2023-10-10T12:01:55.901Z,80.80
2023-10-10T12:04:07.942Z,80.66
2023-10-10T12:06:15.880Z,80.27
2023-10-10T12:08:25.113Z,80.60
2023-10-10T12:10:44.136Z,80.09
2023-10-10T12:12:47.829Z,80.22
2023-10-10T12:14:51.907Z,80.51
2023-10-10T12:16:58.857Z,80.25
2023-10-10T12:19:00.948Z,80.29
2023-10-10T12:21:04.044Z,80.68
2023-10-10T12:23:05.894Z,80.45
2023-10-10T12:25:15.315Z,80.79
2023-10-10T12:27:17.356Z,80.39
2023-10-10T12:29:19.134Z,80.15
2023-10-10T12:31:23.966Z,79.79
2023-10-10T12:33:25.987Z,79.31
2023-10-10T12:35:28.733Z,79.46
2023-10-10T12:37:37.650Z,79.03
2023-10-10T12:39:39.602Z,79.12
2023-10-10T12:41:47.827Z,79.29
2023-10-10T12:43:52.919Z,78.60
2023-10-10T12:45:57.394Z,78.64
2023-10-10T12:48:04.074Z,78.19
2023-10-10T12:50:14.389Z,77.90
2023-10-10T12:52:19.323Z,77.75
2023-10-10T12:54:21.893Z,77.73
2023-10-10T12:56:24.930Z,78.27
2023-10-10T12:58:27.703Z,78.08
2023-10-10T13:00:34.846Z,78.04
2023-10-10T13:02:36.720Z,77.60
2023-10-10T13:04:39.801Z,77.74
2023-10-10T13:06:41.635Z,76.99
2023-10-10T13:08:51.708Z,77.33
2023-10-10T13:10:56.510Z,77.16
2023-10-10T13:12:58.739Z,77.16
2023-10-10T13:15:20.018Z,77.12
2023-10-10T13:17:24.683Z,77.28
2023-10-10T13:19:26.788Z,77.15
2023-10-10T13:21:28.509Z,76.47
2023-10-10T13:23:31.810Z,76.71
2023-10-10T13:25:39.173Z,76.51
2023-10-10T13:27:40.934Z,77.00
2023-10-10T13:29:43.005Z,76.71
2023-10-10T13:31:48.181Z,76.34
2023-10-10T13:33:50.078Z,76.53
2023-10-10T13:35:52.788Z,76.67
2023-10-10T13:37:54.505Z,75.94
2023-10-10T13:39:57.002Z,76.33
2023-10-10T13:41:58.809Z,76.61
2023-10-10T13:44:04.035Z,76.01
2023-10-10T13:46:07.217Z,75.35
2023-10-10T13:48:15.616Z,75.50
2023-10-10T13:50:29.874Z,75.59
2023-10-10T13:52:33.212Z,75.56
2023-10-10T13:54:35.026Z,75.78
2023-10-10T13:56:36.940Z,76.06
2023-10-10T13:58:41.900Z,76.02
2023-10-10T14:00:54.147Z,76.08
2023-10-10T14:03:01.474Z,76.10
2023-10-10T14:05:03.991Z,76.40
2023-10-10T14:07:07.453Z,77.11
2023-10-10T14:09:11.242Z,76.78
2023-10-10T14:11:14.636Z,77.30
2023-10-10T14:13:21.614Z,76.98
2023-10-10T14:15:23.511Z,77.22
2023-10-10T14:17:28.324Z,77.18
2023-10-10T14:19:30.166Z,77.28
2023-10-10T14:21:32.363Z,77.59
2023-10-10T14:23:36.854Z,77.73
2023-10-10T14:25:38.780Z,77.94
2023-10-10T14:27:45.341Z,77.54
2023-10-10T14:29:47.264Z,77.61
2023-10-10T14:31:49.190Z,77.76
2023-10-10T14:33:55.433Z,77.31
2023-10-10T14:35:57.272Z,77.42
2023-10-10T14:38:02.831Z,76.73
2023-10-10T14:40:09.804Z,76.69
2023-10-10T14:42:12.379Z,76.83
2023-10-10T14:44:14.201Z,76.50
2023-10-10T14:46:22.955Z,76.88
2023-10-10T14:48:25.102Z,76.20
2023-10-10T14:50:26.988Z,76.04
2023-10-10T14:52:36.431Z,76.37
2023-10-10T14:54:43.816Z,75.79
2023-10-10T14:56:51.582Z,75.48
2023-10-10T14:58:53.378Z,75.54
2023-10-10T15:00:58.526Z,75.86
2023-10-10T15:03:00.671Z,75.44
2023-10-10T15:05:12.561Z,75.66
2023-10-10T15:07:14.389Z,75.92
2023-10-10T15:09:21.667Z,75.73
2023-10-10T15:11:24.586Z,75.18
2023-10-10T15:13:27.580Z,75.19
2023-10-10T15:15:31.198Z,75.39
2023-10-10T15:17:32.976Z,75.59
2023-10-10T15:19:34.907Z,75.47
2023-10-10T15:21:37.556Z,75.46
2023-10-10T15:23:39.791Z,75.46
2023-10-10T15:25:42.667Z,74.69
2023-10-10T15:27:44.614Z,74.86
2023-10-10T15:29:46.365Z,74.98
2023-10-10T15:31:48.331Z,74.67
2023-10-10T15:33:50.387Z,74.99
2023-10-10T15:35:54.088Z,75.00
2023-10-10T15:37:56.104Z,74.68
2023-10-10T15:39:59.043Z,74.91
2023-10-10T15:42:06.057Z,75.13
2023-10-10T15:44:09.487Z,74.94
2023-10-10T15:46:12.384Z,74.98
2023-10-10T15:48:24.711Z,74.93
2023-10-10T15:50:26.622Z,75.47
2023-10-10T15:52:29.363Z,74.95
2023-10-10T15:54:35.909Z,75.69
2023-10-10T15:56:38.428Z,75.17
2023-10-10T15:58:51.901Z,75.01
2023-10-10T16:00:54.118Z,75.44
2023-10-10T16:02:57.264Z,75.01
2023-10-10T16:05:01.551Z,74.98
2023-10-10T16:07:05.332Z,74.95
2023-10-10T16:09:13.675Z,75.70
2023-10-10T16:11:18.334Z,75.35
2023-10-10T16:13:20.255Z,75.21
2023-10-10T16:15:30.864Z,75.55
2023-10-10T16:17:33.302Z,75.66
2023-10-10T16:19:37.465Z,75.98
2023-10-10T16:21:42.022Z,75.50
2023-10-10T16:23:45.065Z,75.71
2023-10-10T16:25:46.834Z,75.35
2023-10-10T16:27:48.556Z,75.64
2023-10-10T16:29:56.924Z,75.96
2023-10-10T16:31:59.457Z,75.92
2023-10-10T16:34:03.622Z,75.45
2023-10-10T16:36:10.826Z,75.78
2023-10-10T16:38:12.597Z,75.34
2023-10-10T16:40:18.730Z,75.72
2023-10-10T16:42:21.157Z,75.86
2023-10-10T16:44:23.060Z,75.45
2023-10-10T16:46:26.932Z,75.63
2023-10-10T16:48:32.693Z,75.50
2023-10-10T16:50:35.344Z,75.40
2023-10-10T16:52:41.036Z,75.02
2023-10-10T16:54:53.289Z,75.34
2023-10-10T16:56:59.022Z,75.22
2023-10-10T16:59:01.144Z,74.88
2023-10-10T17:01:07.131Z,74.86
2023-10-10T17:03:13.554Z,74.68
2023-10-10T17:05:15.378Z,74.63
2023-10-10T17:07:17.080Z,74.08
2023-10-10T17:09:18.858Z,73.75
2023-10-10T17:11:22.339Z,73.45
2023-10-10T17:13:24.632Z,73.60
2023-10-10T17:15:26.343Z,73.22
2023-10-10T17:17:28.235Z,73.43
2023-10-10T17:19:32.845Z,73.44
2023-10-10T17:21:35.669Z,73.39
2023-10-10T17:23:37.696Z,73.28
2023-10-10T17:25:41.328Z,72.66
2023-10-10T17:27:45.280Z,72.83
2023-10-10T17:29:47.289Z,72.60
2023-10-10T17:31:49.171Z,72.55
2023-10-10T17:33:55.091Z,72.49
2023-10-10T17:35:58.127Z,72.11
2023-10-10T17:38:00.764Z,72.44
2023-10-10T17:40:14.189Z,72.05
2023-10-10T17:42:15.988Z,71.88
2023-10-10T17:44:19.999Z,71.71
2023-10-10T17:46:22.945Z,72.10
2023-10-10T17:48:31.901Z,72.12
2023-10-10T17:50:34.949Z,71.43
2023-10-10T17:52:36.990Z,71.61
2023-10-10T17:54:42.171Z,71.89
2023-10-10T17:56:46.309Z,71.45
2023-10-10T17:58:48.041Z,71.63
2023-10-10T18:00:53.869Z,71.50
2023-10-10T18:02:57.518Z,71.25
2023-10-10T18:04:59.859Z,71.42
2023-10-10T18:07:01.632Z,71.19
2023-10-10T18:09:09.733Z,71.62
2023-10-10T18:11:11.926Z,71.47
2023-10-10T18:13:13.782Z,71.41
2023-10-10T18:15:20.097Z,71.47
2023-10-10T18:17:23.511Z,71.43
2023-10-10T18:19:27.431Z,71.33
2023-10-10T18:21:31.280Z,71.15
2023-10-10T18:23:33.151Z,71.76
2023-10-10T18:25:39.339Z,71.57
2023-10-10T18:27:46.284Z,71.79
2023-10-10T18:29:49.684Z,71.90
2023-10-10T18:31:51.662Z,72.15
2023-10-10T18:33:53.537Z,71.72
2023-10-10T18:35:55.775Z,71.46
2023-10-10T18:37:57.778Z,71.32
2023-10-10T18:39:59.498Z,71.68
2023-10-10T18:42:02.037Z,72.04
2023-10-10T18:44:05.266Z,72.01
2023-10-10T18:46:07.198Z,71.69
2023-10-10T18:48:12.138Z,71.91
2023-10-10T18:50:20.479Z,71.48
2023-10-10T18:52:23.687Z,72.18
2023-10-10T18:54:25.402Z,71.94
2023-10-10T18:56:27.195Z,71.43
2023-10-10T18:58:29.897Z,71.75
2023-10-10T19:00:35.436Z,71.49
2023-10-10T19:02:37.170Z,71.31
2023-10-10T19:04:41.170Z,71.37
2023-10-10T19:06:42.937Z,71.64
2023-10-10T19:08:45.611Z,71.63
2023-10-10T19:10:53.616Z,71.63
2023-10-10T19:12:57.026Z,71.23
2023-10-10T19:14:58.796Z,71.27
2023-10-10T19:17:01.687Z,71.17
2023-10-10T19:19:06.155Z,71.28
2023-10-10T19:21:17.350Z,71.67
2023-10-10T19:23:20.175Z,71.43
2023-10-10T19:25:27.873Z,71.22
2023-10-10T19:27:29.677Z,71.25
2023-10-10T19:29:31.459Z,71.30
2023-10-10T19:31:40.155Z,70.94
2023-10-10T19:33:41.957Z,71.35
2023-10-10T19:35:47.112Z,71.39
2023-10-10T19:37:51.790Z,71.27
2023-10-10T19:39:54.735Z,71.07
2023-10-10T19:41:58.766Z,71.37
2023-10-10T19:44:00.641Z,70.83
2023-10-10T19:46:04.773Z,70.44
2023-10-10T19:48:07.946Z,71.08
2023-10-10T19:50:10.756Z,70.70
2023-10-10T19:52:12.585Z,70.84
2023-10-10T19:54:14.502Z,70.60
2023-10-10T19:56:16.498Z,70.54
2023-10-10T19:58:22.404Z,70.42
2023-10-10T20:00:25.516Z,70.22
2023-10-10T20:02:27.345Z,70.17
2023-10-10T20:04:29.422Z,70.57
2023-10-10T20:06:31.527Z,70.39
2023-10-10T20:08:36.177Z,70.26
2023-10-10T20:10:38.742Z,70.75
2023-10-10T20:12:40.862Z,70.83
2023-10-10T20:14:42.615Z,70.75
2023-10-10T20:16:44.384Z,70.57
2023-10-10T20:18:46.932Z,70.74
2023-10-10T20:20:49.822Z,70.56
2023-10-10T20:22:51.584Z,70.94
2023-10-10T20:24:54.609Z,70.76
2023-10-10T20:26:57.359Z,70.56
2023-10-10T20:28:59.177Z,70.58
2023-10-10T20:31:07.856Z,71.03
2023-10-10T20:33:16.766Z,71.17
2023-10-10T20:35:25.884Z,71.25
2023-10-10T20:37:27.666Z,71.09
2023-10-10T20:39:29.517Z,71.31
2023-10-10T20:41:34.004Z,71.09
2023-10-10T20:43:37.561Z,70.86
2023-10-10T20:45:39.539Z,71.56
2023-10-10T20:47:44.250Z,71.27
2023-10-10T20:49:46.066Z,71.30
2023-10-10T20:51:49.750Z,71.87
2023-10-10T20:53:51.948Z,71.96
2023-10-10T20:55:53.726Z,71.54
2023-10-10T20:58:00.055Z,71.65
2023-10-10T21:00:07.199Z,71.88
2023-10-10T21:02:08.930Z,71.57
2023-10-10T21:04:10.712Z,71.83
2023-10-10T21:06:13.281Z,71.80
2023-10-10T21:08:19.345Z,71.81
2023-10-10T21:10:33.739Z,72.35
2023-10-10T21:12:35.460Z,71.57
2023-10-10T21:14:37.808Z,71.78
2023-10-10T21:16:41.585Z,71.76
2023-10-10T21:18:43.690Z,72.04
2023-10-10T21:20:56.836Z,72.41
2023-10-10T21:23:04.402Z,71.75
2023-10-10T21:25:07.362Z,71.57
2023-10-10T21:27:09.203Z,71.69
2023-10-10T21:29:10.902Z,71.17
2023-10-10T21:31:12.871Z,70.90
2023-10-10T21:33:15.824Z,70.55
2023-10-10T21:35:20.589Z,70.64
2023-10-10T21:37:23.089Z,70.67
2023-10-10T21:39:26.364Z,70.70
2023-10-10T21:41:29.579Z,70.82
2023-10-10T21:43:32.419Z,70.44
2023-10-10T21:45:34.585Z,70.24
2023-10-10T21:47:37.552Z,69.85
2023-10-10T21:49:39.359Z,70.08
2023-10-10T21:51:41.793Z,69.91
2023-10-10T21:53:43.722Z,69.60
2023-10-10T21:55:45.491Z,69.48
2023-10-10T21:57:57.164Z,69.21
2023-10-10T21:59:59.137Z,69.50
2023-10-10T22:02:01.083Z,69.44
2023-10-10T22:04:04.724Z,69.03
2023-10-10T22:06:08.705Z,69.52
2023-10-10T22:08:11.802Z,69.19
2023-10-10T22:10:15.293Z,68.86
2023-10-10T22:12:17.027Z,68.67
2023-10-10T22:14:18.743Z,68.95
2023-10-10T22:16:20.494Z,69.20
2023-10-10T22:18:22.312Z,68.96
2023-10-10T22:20:25.625Z,69.16
2023-10-10T22:22:28.090Z,68.85
2023-10-10T22:24:30.137Z,68.24
2023-10-10T22:26:32.024Z,68.69
2023-10-10T22:28:33.839Z,68.43
2023-10-10T22:30:38.806Z,68.51
2023-10-10T22:32:46.044Z,68.67
2023-10-10T22:34:47.967Z,68.62
2023-10-10T22:36:58.679Z,68.54
2023-10-10T22:39:08.700Z,68.69
2023-10-10T22:41:12.001Z,68.28
2023-10-10T22:43:16.595Z,68.32
2023-10-10T22:45:21.428Z,68.74
2023-10-10T22:47:23.305Z,69.04
2023-10-10T22:49:25.003Z,68.71
2023-10-10T22:51:26.845Z,68.96
2023-10-10T22:53:30.327Z,69.47
2023-10-10T22:55:36.533Z,69.36
2023-10-10T22:57:38.447Z,68.58
2023-10-10T22:59:40.220Z,69.08
2023-10-10T23:01:46.595Z,69.49
2023-10-10T23:03:48.588Z,69.39
2023-10-10T23:05:51.973Z,69.38
2023-10-10T23:07:54.608Z,69.43
2023-10-10T23:09:56.330Z,69.31
2023-10-10T23:11:58.235Z,69.47
2023-10-10T23:13:59.954Z,69.70
2023-10-10T23:16:01.841Z,69.73
2023-10-10T23:18:03.744Z,69.85
2023-10-10T23:20:14.536Z,69.99
2023-10-10T23:22:16.486Z,70.02
2023-10-10T23:24:18.346Z,69.99
2023-10-10T23:26:20.996Z,70.41
2023-10-10T23:28:22.793Z,70.43
2023-10-10T23:30:29.123Z,70.79
2023-10-10T23:32:32.437Z,70.35
2023-10-10T23:34:34.360Z,70.46
2023-10-10T23:36:37.389Z,70.71
2023-10-10T23:38:45.621Z,70.65
2023-10-10T23:40:47.840Z,70.86
2023-10-10T23:42:52.723Z,70.83
2023-10-10T23:44:54.596Z,71.07
2023-10-10T23:46:56.429Z,70.89
2023-10-10T23:48:58.664Z,70.96
2023-10-10T23:51:01.031Z,70.92
2023-10-10T23:53:03.566Z,70.88
2023-10-10T23:55:05.910Z,70.83
2023-10-10T23:57:07.671Z,70.38
2023-10-10T23:59:11.155Z,71.16
